Time;durP1;ratioP1;P1;durP2;ratioP2;P2;SDS_P1;SDS_P2;PMS_P1;PMS_P2;Temp;Humidity;BMP_temperature;BMP_pressure;BME280_temperature;BME280_humidity;BME280_pressure;Samples;Min_cycle;Max_cycle;Signal;HPM_P1;HPM_P2
2022/04/25 00:00:57;;;;;;;9.75;5.53;;;;;;;8.46;100.00;100856.44;5000603;28;20056;-43
2022/04/25 00:03:22;;;;;;;8.95;5.15;;;;;;;8.42;100.00;100855.84;4998502;28;20021;-41
2022/04/25 00:05:47;;;;;;;11.45;5.70;;;;;;;8.30;100.00;100843.69;5006457;28;20338;-42
2022/04/25 00:08:13;;;;;;;10.80;5.65;;;;;;;8.28;100.00;100849.19;5013666;28;20114;-42
2022/04/25 00:10:39;;;;;;;12.18;5.78;;;;;;;8.19;100.00;100845.56;5005067;28;20370;-44
2022/04/25 00:13:04;;;;;;;13.10;5.68;;;;;;;8.19;100.00;100850.06;5000751;28;20184;-43
2022/04/25 00:15:29;;;;;;;10.30;5.68;;;;;;;8.19;100.00;100856.22;5019975;28;20116;-45
2022/04/25 00:17:55;;;;;;;10.27;5.22;;;;;;;8.20;100.00;100854.41;5014884;28;20064;-44
2022/04/25 00:20:20;;;;;;;12.75;5.82;;;;;;;8.15;100.00;100852.19;5003617;28;20022;-43
2022/04/25 00:22:46;;;;;;;9.93;5.70;;;;;;;8.11;100.00;100849.94;5015570;28;20029;-43
2022/04/25 00:25:12;;;;;;;11.25;5.80;;;;;;;8.09;100.00;100854.56;5005540;28;20400;-41
2022/04/25 00:27:37;;;;;;;14.55;5.90;;;;;;;8.02;100.00;100856.97;4999740;28;20083;-43
2022/04/25 00:30:03;;;;;;;10.32;6.35;;;;;;;7.98;100.00;100851.09;4999917;28;20025;-41
2022/04/25 00:32:28;;;;;;;11.00;5.68;;;;;;;7.95;100.00;100859.38;4999648;28;20077;-43
2022/04/25 00:34:54;;;;;;;12.98;5.97;;;;;;;7.93;100.00;100855.19;4998364;28;20033;-44
2022/04/25 00:37:19;;;;;;;12.07;5.78;;;;;;;7.92;100.00;100858.81;5004871;28;20875;-42
2022/04/25 00:39:44;;;;;;;9.90;6.20;;;;;;;7.89;100.00;100851.97;5013688;28;20321;-43
2022/04/25 00:42:10;;;;;;;9.48;5.97;;;;;;;7.80;100.00;100860.78;5008225;28;20077;-42
2022/04/25 00:44:35;;;;;;;12.77;6.10;;;;;;;7.79;100.00;100859.97;5015941;28;20779;-42
2022/04/25 00:47:02;;;;;;;12.13;6.10;;;;;;;7.77;100.00;100855.75;5017343;28;20125;-46
2022/04/25 00:49:27;;;;;;;10.93;5.85;;;;;;;7.76;100.00;100854.94;5013928;28;20139;-43
2022/04/25 00:51:52;;;;;;;9.88;6.20;;;;;;;7.72;100.00;100858.00;5005105;28;20112;-44
2022/04/25 00:54:20;;;;;;;13.35;6.65;;;;;;;7.67;100.00;100861.06;5004514;28;20044;-42
2022/04/25 00:56:48;;;;;;;10.55;6.45;;;;;;;7.64;100.00;100854.25;5018912;28;20586;-46
2022/04/25 00:59:16;;;;;;;11.82;6.85;;;;;;;7.58;100.00;100856.63;5018909;28;20040;-44
2022/04/25 01:01:42;;;;;;;12.15;6.38;;;;;;;7.54;100.00;100856.06;5020032;28;20120;-42
2022/04/25 01:04:08;;;;;;;10.82;6.18;;;;;;;7.55;100.00;100856.91;5006585;28;20022;-41
2022/04/25 01:06:33;;;;;;;11.45;6.65;;;;;;;7.50;100.00;100851.19;5000517;28;20033;-41
2022/04/25 01:08:59;;;;;;;14.20;6.78;;;;;;;7.48;100.00;100846.00;4998839;28;20026;-46
2022/04/25 01:11:24;;;;;;;11.25;6.40;;;;;;;7.46;100.00;100848.78;5010289;28;20037;-42
2022/04/25 01:13:50;;;;;;;15.63;6.82;;;;;;;7.49;100.00;100853.00;5006872;28;20081;-41
2022/04/25 01:16:15;;;;;;;11.45;6.55;;;;;;;7.43;100.00;100848.25;5018606;28;20029;-43
2022/04/25 01:18:40;;;;;;;12.50;6.75;;;;;;;7.41;100.00;100852.84;5003909;28;20065;-42
2022/04/25 01:21:10;;;;;;;14.93;6.82;;;;;;;7.41;100.00;100852.84;5000945;28;20064;-44
2022/04/25 01:29:03;;;;;;;12.90;7.15;;;;;;;7.32;100.00;100849.22;4998607;28;20091;-42
2022/04/25 01:31:29;;;;;;;12.38;6.70;;;;;;;7.34;100.00;100851.75;5002918;28;20021;-43
2022/04/25 01:33:54;;;;;;;12.35;6.88;;;;;;;7.32;100.00;100845.75;5017233;28;20037;-41
2022/04/25 01:36:23;;;;;;;12.18;6.25;;;;;;;7.25;100.00;100845.47;5017492;28;20038;-43
2022/04/25 01:38:53;;;;;;;16.60;7.63;;;;;;;7.18;100.00;100845.19;5018567;28;20049;-40
2022/04/25 01:41:18;;;;;;;14.40;7.50;;;;;;;7.16;100.00;100847.13;5014219;28;20029;-41
2022/04/25 01:43:43;;;;;;;13.93;7.63;;;;;;;7.15;100.00;100856.06;5005448;28;20037;-42
2022/04/25 01:46:08;;;;;;;11.48;7.43;;;;;;;7.10;100.00;100859.13;4998927;28;20026;-43
2022/04/25 01:48:34;;;;;;;16.85;7.82;;;;;;;7.01;100.00;100862.63;5003174;28;20035;-41
2022/04/25 01:50:59;;;;;;;11.38;7.15;;;;;;;6.97;100.00;100858.56;5010892;28;20625;-43
2022/04/25 01:53:25;;;;;;;10.88;7.05;;;;;;;6.95;100.00;100849.88;5003841;28;20021;-44
2022/04/25 01:55:51;;;;;;;16.77;7.88;;;;;;;6.96;100.00;100859.56;5011772;28;20041;-44
2022/04/25 01:58:16;;;;;;;18.92;7.85;;;;;;;6.93;100.00;100854.50;5006169;28;20107;-45
2022/04/25 02:00:41;;;;;;;19.25;8.23;;;;;;;6.95;100.00;100855.19;4998678;28;20038;-42
2022/04/25 02:03:09;;;;;;;12.63;8.20;;;;;;;6.94;100.00;100852.69;4996924;28;20029;-42
2022/04/25 02:05:34;;;;;;;16.52;8.23;;;;;;;6.92;100.00;100855.47;4999591;28;20430;-44
2022/04/25 02:08:00;;;;;;;14.02;7.90;;;;;;;6.91;100.00;100861.78;4998726;28;20041;-44
2022/04/25 02:10:25;;;;;;;19.02;8.45;;;;;;;6.86;100.00;100850.72;5000197;28;20451;-44
2022/04/25 02:12:50;;;;;;;20.30;8.18;;;;;;;6.86;100.00;100858.69;5002636;28;20052;-47
2022/04/25 02:15:15;;;;;;;16.77;8.20;;;;;;;6.83;100.00;100851.00;5006764;28;20045;-43
2022/04/25 02:17:44;;;;;;;14.05;7.80;;;;;;;6.75;100.00;100856.13;5003001;28;20151;-43
2022/04/25 02:20:11;;;;;;;15.65;8.10;;;;;;;6.72;100.00;100849.28;5002150;28;20473;-42
2022/04/25 02:22:36;;;;;;;13.20;8.38;;;;;;;6.69;100.00;100842.44;5036242;28;20033;-46
2022/04/25 02:25:02;;;;;;;13.10;8.48;;;;;;;6.64;100.00;100849.97;5014767;28;20021;-42
2022/04/25 02:27:28;;;;;;;17.05;8.55;;;;;;;6.63;100.00;100848.28;5019148;28;20052;-46
2022/04/25 02:29:57;;;;;;;15.43;8.52;;;;;;;6.68;100.00;100848.72;5009397;28;20040;-45
2022/04/25 02:32:23;;;;;;;14.27;7.93;;;;;;;6.65;100.00;100854.31;5002160;28;20040;-46
2022/04/25 02:34:50;;;;;;;16.77;8.30;;;;;;;6.62;100.00;100849.28;4999143;28;20018;-45
2022/04/25 02:37:15;;;;;;;23.23;8.45;;;;;;;6.59;100.00;100844.22;5001900;28;20040;-43
2022/04/25 02:39:41;;;;;;;16.35;8.27;;;;;;;6.58;100.00;100844.34;5001600;28;20054;-44
2022/04/25 02:42:06;;;;;;;18.20;8.07;;;;;;;6.56;100.00;100848.97;5002318;28;20188;-43
2022/04/25 02:44:32;;;;;;;15.05;8.60;;;;;;;6.55;100.00;100848.09;5000638;28;20022;-46
2022/04/25 02:46:57;;;;;;;14.43;8.65;;;;;;;6.55;100.00;100840.16;5014293;28;20483;-43
2022/04/25 02:49:22;;;;;;;17.13;9.18;;;;;;;6.53;100.00;100839.44;5009738;28;20029;-43
2022/04/25 02:51:47;;;;;;;15.48;8.32;;;;;;;6.50;100.00;100847.69;5018549;28;20025;-45
2022/04/25 02:54:13;;;;;;;16.67;8.50;;;;;;;6.48;100.00;100855.78;5013817;28;20033;-45
2022/04/25 02:56:38;;;;;;;16.10;8.77;;;;;;;6.44;100.00;100842.94;5000393;28;20466;-45
2022/04/25 02:59:03;;;;;;;15.38;8.75;;;;;;;6.42;100.00;100844.88;5007564;28;20439;-47
2022/04/25 03:01:29;;;;;;;18.58;9.23;;;;;;;6.38;100.00;100843.44;5018226;28;20360;-43
2022/04/25 03:03:54;;;;;;;15.88;9.82;;;;;;;6.34;100.00;100838.41;5011399;28;20029;-41
2022/04/25 03:06:19;;;;;;;14.13;8.50;;;;;;;6.34;100.00;100842.88;4999532;28;20361;-41
2022/04/25 03:08:45;;;;;;;16.08;9.20;;;;;;;6.33;100.00;100839.41;4999037;28;20033;-41
2022/04/25 03:11:10;;;;;;;15.50;8.85;;;;;;;6.32;100.00;100837.72;4998833;28;20536;-41
2022/04/25 03:13:36;;;;;;;21.08;9.57;;;;;;;6.28;100.00;100846.91;4999928;28;20034;-42
2022/04/25 03:16:04;;;;;;;18.13;9.38;;;;;;;6.23;100.00;100838.53;5012759;28;20033;-44
2022/04/25 03:18:29;;;;;;;17.63;8.80;;;;;;;6.24;100.00;100844.66;5017118;28;20469;-43
2022/04/25 03:20:55;;;;;;;16.23;9.02;;;;;;;6.19;100.00;100836.25;5019455;28;20045;-41
2022/04/25 03:23:22;;;;;;;17.08;9.45;;;;;;;6.15;100.00;100843.66;5017293;28;20057;-43
2022/04/25 03:25:48;;;;;;;16.55;9.80;;;;;;;6.12;100.00;100843.91;5018138;28;20443;-42
2022/04/25 03:28:13;;;;;;;16.52;9.48;;;;;;;6.07;100.00;100848.75;5017559;28;20028;-42
2022/04/25 03:30:39;;;;;;;18.85;10.10;;;;;;;6.10;100.00;100845.84;5016034;28;20033;-42
2022/04/25 03:33:05;;;;;;;19.45;9.65;;;;;;;6.11;100.00;100844.84;5007870;28;20124;-43
2022/04/25 03:35:30;;;;;;;15.02;9.05;;;;;;;6.12;100.00;100851.84;5018632;28;20022;-42
2022/04/25 03:37:57;;;;;;;19.35;10.05;;;;;;;6.15;100.00;100851.59;5018069;28;20124;-46
2022/04/25 03:40:23;;;;;;;19.45;10.10;;;;;;;6.18;100.00;100858.44;5015637;28;20396;-46
2022/04/25 03:42:48;;;;;;;16.45;10.05;;;;;;;6.17;100.00;100857.59;5015567;28;20025;-44
2022/04/25 03:45:16;;;;;;;15.23;10.23;;;;;;;6.20;100.00;100861.81;4998601;28;20056;-45
2022/04/25 03:47:42;;;;;;;18.33;10.02;;;;;;;6.22;100.00;100860.69;4997632;28;20064;-46
2022/04/25 03:50:09;;;;;;;15.57;10.05;;;;;;;6.18;100.00;100861.09;5001347;28;20026;-46
2022/04/25 03:52:35;;;;;;;21.73;9.85;;;;;;;6.16;100.00;100862.06;5018632;28;20116;-45
2022/04/25 03:57:48;;;;;;;18.13;10.20;;;;;;;6.03;100.00;100871.22;5017721;28;20091;-44
2022/04/25 04:00:14;;;;;;;17.25;10.60;;;;;;;5.95;100.00;100864.69;5012106;28;20033;-43
2022/04/25 04:02:39;;;;;;;22.95;10.40;;;;;;;5.92;100.00;100864.13;5005074;28;20260;-46
2022/04/25 04:05:05;;;;;;;20.30;10.50;;;;;;;5.89;100.00;100865.25;5010448;28;20575;-46
2022/04/25 04:07:31;;;;;;;20.23;11.57;;;;;;;5.85;100.00;100865.63;5017764;28;20075;-43
2022/04/25 04:09:57;;;;;;;19.90;11.32;;;;;;;5.82;100.00;100866.72;5015170;28;20376;-43
2022/04/25 04:12:25;;;;;;;19.58;10.95;;;;;;;5.79;100.00;100874.94;5014344;28;20366;-42
2022/04/25 04:14:51;;;;;;;18.40;10.98;;;;;;;5.78;100.00;100875.91;4997825;28;20306;-41
2022/04/25 04:17:17;;;;;;;21.27;10.55;;;;;;;5.79;100.00;100882.91;4998341;28;20104;-44
2022/04/25 04:19:44;;;;;;;25.38;10.70;;;;;;;5.78;100.00;100878.56;4997030;28;20034;-42
2022/04/25 04:22:09;;;;;;;19.48;11.27;;;;;;;5.84;100.00;100879.84;4998249;28;20026;-44
2022/04/25 04:24:35;;;;;;;20.92;10.88;;;;;;;5.82;100.00;100889.72;4998220;28;20530;-41
2022/04/25 04:27:06;;;;;;;18.88;11.18;;;;;;;5.77;100.00;100879.50;4998540;28;20037;-42
2022/04/25 04:29:32;;;;;;;15.55;10.52;;;;;;;5.75;100.00;100881.47;4997988;28;20443;-42
2022/04/25 04:32:05;;;;;;;18.85;11.27;;;;;;;5.74;100.00;100885.09;5002643;28;20025;-42
2022/04/25 04:34:31;;;;;;;18.40;11.00;;;;;;;5.75;100.00;100892.06;4997440;28;20484;-44
2022/04/25 04:36:56;;;;;;;20.27;10.60;;;;;;;5.76;100.00;100891.94;4997925;28;20054;-41
2022/04/25 04:39:21;;;;;;;23.23;10.65;;;;;;;5.77;100.00;100890.09;5012321;28;20048;-42
2022/04/25 04:41:47;;;;;;;24.88;11.38;;;;;;;5.74;100.00;100904.47;5013212;28;20060;-42
2022/04/25 04:44:13;;;;;;;22.10;10.85;;;;;;;5.71;100.00;100903.91;5003118;28;20072;-42
2022/04/25 04:46:39;;;;;;;23.05;11.27;;;;;;;5.70;100.00;100899.53;5013937;28;20136;-42
2022/04/25 04:49:05;;;;;;;18.88;11.00;;;;;;;5.75;100.00;100903.50;4996578;28;20029;-45
2022/04/25 04:51:30;;;;;;;25.10;11.85;;;;;;;5.76;100.00;100907.00;4997944;28;20568;-45
2022/04/25 04:53:59;;;;;;;20.60;11.00;;;;;;;5.87;100.00;100903.44;4997340;28;20088;-44
2022/04/25 04:56:33;;;;;;;31.98;11.18;;;;;;;5.99;100.00;100902.41;4997795;28;20033;-41
2022/04/25 04:58:59;;;;;;;26.17;12.00;;;;;;;6.12;100.00;100907.53;5006785;28;20053;-42
2022/04/25 05:01:26;;;;;;;21.85;11.45;;;;;;;6.19;100.00;100903.38;5016222;28;20460;-45
2022/04/25 05:03:52;;;;;;;21.58;11.95;;;;;;;6.25;100.00;100913.47;5014104;28;20560;-43
2022/04/25 05:06:17;;;;;;;20.23;11.20;;;;;;;6.32;100.00;100901.38;5006904;28;20109;-42
2022/04/25 05:08:42;;;;;;;21.13;11.10;;;;;;;6.40;100.00;100910.47;4999327;28;20030;-44
2022/04/25 05:11:09;;;;;;;19.38;11.35;;;;;;;6.50;100.00;100912.22;5016743;28;20013;-43
2022/04/25 05:13:35;;;;;;;21.15;10.63;;;;;;;6.59;100.00;100923.00;5016777;28;20021;-42
2022/04/25 05:16:01;;;;;;;24.88;11.07;;;;;;;6.61;100.00;100921.06;5004841;28;20025;-43
2022/04/25 05:18:27;;;;;;;22.73;11.10;;;;;;;6.68;100.00;100928.31;4995215;28;20034;-43
2022/04/25 05:20:52;;;;;;;22.88;11.30;;;;;;;6.72;100.00;100926.25;5013208;28;20428;-44
2022/04/25 05:23:18;;;;;;;20.00;10.88;;;;;;;6.79;100.00;100934.50;5017288;28;20048;-43
2022/04/25 05:25:43;;;;;;;22.48;11.13;;;;;;;6.88;100.00;100931.91;5017235;28;20025;-43
2022/04/25 05:28:08;;;;;;;22.20;11.73;;;;;;;6.95;100.00;100934.84;5016365;28;20166;-45
2022/04/25 05:30:35;;;;;;;19.77;11.07;;;;;;;7.02;100.00;100935.16;5018036;28;20370;-44
2022/04/25 05:33:03;;;;;;;21.05;11.30;;;;;;;7.10;100.00;100943.28;5015509;28;20021;-44
2022/04/25 05:35:30;;;;;;;19.83;11.13;;;;;;;7.11;100.00;100942.28;5009587;28;20365;-43
2022/04/25 05:37:57;;;;;;;21.90;11.52;;;;;;;7.12;100.00;100949.28;4997580;28;20592;-42
2022/04/25 05:40:23;;;;;;;20.38;11.63;;;;;;;7.19;100.00;100946.94;5017256;28;20297;-47
2022/04/25 05:42:50;;;;;;;22.67;11.40;;;;;;;7.27;100.00;100949.75;4998714;28;20548;-41
2022/04/25 05:45:21;;;;;;;23.85;10.90;;;;;;;7.32;100.00;100950.19;4999751;28;20503;-43
2022/04/25 05:47:47;;;;;;;21.40;11.68;;;;;;;7.41;100.00;100959.16;5000312;28;20026;-42
2022/04/25 05:52:59;;;;;;;19.90;12.25;;;;;;;7.50;100.00;100958.31;5020561;28;20099;-43
2022/04/25 05:55:25;;;;;;;26.10;11.35;;;;;;;7.52;100.00;100964.34;5031473;28;20021;-42
2022/04/25 05:57:51;;;;;;;23.38;12.00;;;;;;;7.56;100.00;100957.75;5040286;28;20403;-43
2022/04/25 06:00:17;;;;;;;22.25;11.65;;;;;;;7.66;100.00;100971.06;5040547;28;20060;-43
2022/04/25 06:02:44;;;;;;;21.27;11.60;;;;;;;7.74;100.00;100968.56;5039069;28;20051;-46
2022/04/25 06:05:11;;;;;;;27.10;11.57;;;;;;;7.81;100.00;100975.00;5029177;28;20038;-44
2022/04/25 06:07:37;;;;;;;27.30;12.43;;;;;;;7.88;100.00;100969.13;5019745;28;20044;-45
2022/04/25 06:10:03;;;;;;;21.65;12.13;;;;;;;7.90;100.00;100975.13;5033563;28;20869;-43
2022/04/25 06:12:29;;;;;;;23.40;12.32;;;;;;;7.97;100.00;100976.25;5037021;28;20471;-47
2022/04/25 06:15:00;;;;;;;29.88;13.15;;;;;;;8.00;100.00;100981.28;5038570;28;20293;-45
2022/04/25 06:17:26;;;;;;;29.95;12.90;;;;;;;8.09;100.00;100976.94;5038160;28;20432;-44
2022/04/25 06:19:51;;;;;;;20.58;11.70;;;;;;;8.20;100.00;100982.94;5031364;28;20028;-44
2022/04/25 06:22:20;;;;;;;24.42;11.88;;;;;;;8.23;100.00;100984.47;5037047;28;20143;-45
2022/04/25 06:24:46;;;;;;;27.63;13.45;;;;;;;8.25;100.00;100982.53;5036847;28;20470;-45
2022/04/25 06:27:12;;;;;;;25.85;11.93;;;;;;;8.23;100.00;100981.78;5039439;28;20029;-45
2022/04/25 06:29:39;;;;;;;23.55;12.60;;;;;;;8.25;100.00;100993.16;5039415;28;20099;-42
2022/04/25 06:32:05;;;;;;;23.75;12.85;;;;;;;8.28;100.00;100982.25;5040083;28;20035;-44
2022/04/25 06:34:32;;;;;;;21.60;12.75;;;;;;;8.32;100.00;100986.28;5015278;28;20382;-43
2022/04/25 06:36:57;;;;;;;24.05;12.68;;;;;;;8.38;100.00;100984.84;5016970;28;20595;-45
2022/04/25 06:39:23;;;;;;;21.90;13.13;;;;;;;8.45;100.00;100986.00;5017392;28;20136;-44
2022/04/25 06:41:48;;;;;;;33.05;13.63;;;;;;;8.54;100.00;100997.63;5017470;28;20029;-44
2022/04/25 06:44:13;;;;;;;39.65;13.98;;;;;;;8.64;100.00;100993.09;5022439;28;20021;-46
2022/04/25 06:46:38;;;;;;;26.88;13.05;;;;;;;8.79;100.00;100993.44;5027752;28;20020;-43
2022/04/25 06:51:48;;;;;;;27.42;12.57;;;;;;;8.93;100.00;100992.16;5038426;28;20275;-44
2022/04/25 06:54:14;;;;;;;25.67;13.20;;;;;;;8.92;100.00;100995.81;5014562;28;20140;-43
2022/04/25 06:56:40;;;;;;;26.52;13.15;;;;;;;8.84;100.00;100993.03;5016280;28;20439;-44
2022/04/25 06:59:05;;;;;;;23.55;13.07;;;;;;;8.82;100.00;101005.66;4999466;28;20401;-44
2022/04/25 07:01:32;;;;;;;23.60;13.27;;;;;;;8.85;100.00;101000.03;4998794;28;20313;-43
2022/04/25 07:03:58;;;;;;;23.20;13.40;;;;;;;8.87;100.00;100998.06;5025550;28;20424;-43
2022/04/25 07:06:23;;;;;;;27.35;13.45;;;;;;;8.93;100.00;101006.31;5038242;28;20039;-43
2022/04/25 07:08:48;;;;;;;27.52;13.55;;;;;;;8.98;100.00;101007.69;5036131;28;20028;-44
2022/04/25 07:11:13;;;;;;;25.65;14.43;;;;;;;9.05;100.00;101009.63;5036794;28;20029;-44
2022/04/25 07:13:42;;;;;;;27.52;14.05;;;;;;;9.12;100.00;101001.88;5038243;28;20035;-44
2022/04/25 07:16:08;;;;;;;29.60;14.95;;;;;;;9.13;100.00;101008.88;5038624;28;20037;-46
2022/04/25 07:18:34;;;;;;;27.42;14.40;;;;;;;9.15;100.00;101009.59;5015858;28;20037;-44
2022/04/25 07:20:59;;;;;;;22.63;13.77;;;;;;;9.15;100.00;101006.94;5011319;28;20503;-45
2022/04/25 07:28:53;;;;;;;23.40;14.25;;;;;;;9.17;100.00;101009.44;5008807;28;20045;-43
2022/04/25 07:31:22;;;;;;;22.63;13.82;;;;;;;9.15;100.00;101021.06;5012820;28;20559;-42
2022/04/25 07:33:47;;;;;;;22.42;14.57;;;;;;;9.11;100.00;101014.38;5010677;28;20451;-42
2022/04/25 07:36:14;;;;;;;22.60;14.77;;;;;;;9.09;100.00;101018.16;5015846;28;20017;-43
2022/04/25 07:38:40;;;;;;;21.85;15.23;;;;;;;9.03;100.00;101022.25;5012626;28;139009;-43
2022/04/25 07:41:07;;;;;;;23.42;14.77;;;;;;;8.98;100.00;101026.34;5018233;28;20704;-43
2022/04/25 07:43:34;;;;;;;27.08;16.00;;;;;;;8.91;100.00;101029.59;5019344;28;20025;-43
2022/04/25 07:45:59;;;;;;;26.10;15.48;;;;;;;8.85;100.00;101029.34;5019524;28;20548;-43
2022/04/25 07:48:25;;;;;;;26.48;16.20;;;;;;;8.81;100.00;101027.94;5036889;28;20108;-41
2022/04/25 07:50:50;;;;;;;24.42;15.63;;;;;;;8.75;100.00;101034.69;5038757;28;20040;-42
2022/04/25 07:53:16;;;;;;;30.52;17.05;;;;;;;8.75;100.00;101038.19;5008407;28;20026;-43
2022/04/25 07:55:41;;;;;;;28.67;17.08;;;;;;;8.74;100.00;101039.19;5009004;28;20063;-44
2022/04/25 07:58:08;;;;;;;32.70;18.90;;;;;;;8.78;100.00;101048.56;5035516;28;20044;-44
2022/04/25 08:00:35;;;;;;;31.25;16.02;;;;;;;8.76;100.00;101053.19;5039395;28;20040;-43
2022/04/25 08:03:00;;;;;;;29.52;18.10;;;;;;;8.71;100.00;101047.44;5011739;28;20032;-44
2022/04/25 08:05:26;;;;;;;31.92;19.25;;;;;;;8.68;100.00;101050.41;5011921;28;20033;-43
2022/04/25 08:07:52;;;;;;;32.67;17.85;;;;;;;8.67;100.00;101051.41;5018064;28;20131;-43
2022/04/25 08:10:17;;;;;;;31.08;17.02;;;;;;;8.71;100.00;101047.44;5012022;28;20040;-42
2022/04/25 08:18:12;;;;;;;31.80;19.73;;;;;;;8.71;100.00;101057.28;5007695;28;20060;-43
2022/04/25 08:20:37;;;;;;;30.70;19.65;;;;;;;8.73;100.00;101061.47;5038686;28;20033;-42
2022/04/25 08:23:05;;;;;;;33.92;19.85;;;;;;;8.75;100.00;101061.31;5023753;28;20501;-43
2022/04/25 08:25:30;;;;;;;33.70;20.20;;;;;;;8.79;100.00;101068.03;4997308;28;20531;-42
2022/04/25 08:27:57;;;;;;;34.08;19.73;;;;;;;8.83;100.00;101065.94;5001668;28;20033;-42
2022/04/25 08:30:23;;;;;;;30.40;20.10;;;;;;;8.85;100.00;101069.28;4997882;28;20127;-43
2022/04/25 08:32:48;;;;;;;35.80;20.60;;;;;;;8.88;100.00;101072.50;5003281;28;20402;-43
2022/04/25 08:35:14;;;;;;;32.35;20.40;;;;;;;8.90;100.00;101075.03;5007581;28;20029;-42
2022/04/25 08:37:41;;;;;;;30.88;19.58;;;;;;;8.91;100.00;101080.22;4996321;28;21905;-42
2022/04/25 08:40:07;;;;;;;37.58;20.70;;;;;;;8.94;100.00;101079.91;5008374;28;20550;-45
2022/04/25 08:42:32;;;;;;;35.25;20.33;;;;;;;9.01;100.00;101087.31;5016672;28;20103;-42
2022/04/25 08:45:00;;;;;;;33.67;20.75;;;;;;;9.00;100.00;101086.47;5001430;28;20026;-43
2022/04/25 08:47:31;;;;;;;36.75;20.75;;;;;;;9.01;100.00;101082.00;4995356;28;20022;-46
2022/04/25 08:49:58;;;;;;;32.17;20.77;;;;;;;9.01;100.00;101089.97;4997598;28;20045;-44
2022/04/25 08:52:26;;;;;;;31.27;20.42;;;;;;;9.06;100.00;101095.72;5013687;28;20017;-43
2022/04/25 08:54:52;;;;;;;34.65;20.35;;;;;;;9.14;100.00;101095.84;5028330;28;20126;-42
2022/04/25 08:57:18;;;;;;;36.55;21.08;;;;;;;9.23;100.00;101097.63;5014838;28;20029;-46
2022/04/25 08:59:46;;;;;;;34.72;21.10;;;;;;;9.32;100.00;101099.41;5023575;28;20440;-47
2022/04/25 09:02:12;;;;;;;34.28;20.58;;;;;;;9.37;100.00;101106.13;5033354;28;20415;-45
2022/04/25 09:04:37;;;;;;;33.80;20.45;;;;;;;9.44;100.00;101101.91;5030261;28;20025;-43
2022/04/25 09:07:03;;;;;;;32.75;20.77;;;;;;;9.47;100.00;101106.91;5023690;28;20039;-44
2022/04/25 09:09:28;;;;;;;34.67;20.20;;;;;;;9.50;100.00;101112.81;5014901;28;20400;-44
2022/04/25 09:12:09;;;;;;;30.25;19.50;;;;;;;9.53;100.00;101120.50;5022944;28;20319;-44
2022/04/25 09:14:36;;;;;;;30.98;20.15;;;;;;;9.59;100.00;101120.88;5014810;28;20030;-45
2022/04/25 09:17:03;;;;;;;29.17;19.23;;;;;;;9.65;100.00;101120.31;4996692;28;20148;-58
2022/04/25 09:19:32;;;;;;;28.17;18.38;;;;;;;9.69;100.00;101117.22;5016100;28;20025;-45
2022/04/25 09:21:58;;;;;;;26.77;17.58;;;;;;;9.79;100.00;101127.81;5036516;28;20143;-43
2022/04/25 09:24:35;;;;;;;28.90;18.23;;;;;;;9.84;100.00;101124.69;5036075;28;20506;-44
2022/04/25 09:27:07;;;;;;;25.48;17.23;;;;;;;9.90;100.00;101126.78;5036296;28;20037;-46
2022/04/25 09:29:33;;;;;;;26.75;17.52;;;;;;;10.03;100.00;101127.25;5034522;28;20017;-43
2022/04/25 09:31:58;;;;;;;23.48;16.08;;;;;;;10.14;100.00;101133.38;5034255;28;20025;-44
2022/04/25 09:37:08;;;;;;;22.25;15.45;;;;;;;10.32;100.00;101134.25;5027962;28;20474;-44
2022/04/25 09:39:33;;;;;;;26.15;16.38;;;;;;;10.37;100.00;101137.31;5027119;28;20280;-42
2022/04/25 09:42:00;;;;;;;25.65;15.68;;;;;;;10.33;100.00;101130.56;5044341;28;20459;-43
2022/04/25 09:44:27;;;;;;;20.10;14.63;;;;;;;10.26;100.00;101138.31;5030899;28;20055;-44
2022/04/25 09:46:52;;;;;;;21.42;15.57;;;;;;;10.21;100.00;101140.59;5030956;28;20017;-44
2022/04/25 09:49:21;;;;;;;20.85;14.60;;;;;;;10.18;100.00;101140.06;5029430;28;20506;-46
2022/04/25 09:52:03;;;;;;;19.95;13.32;;;;;;;10.10;100.00;101138.16;5023622;28;20029;-42
2022/04/25 09:54:28;;;;;;;17.65;13.13;;;;;;;10.02;100.00;101146.09;5022178;28;20557;-43
2022/04/25 09:56:54;;;;;;;15.82;12.52;;;;;;;9.96;100.00;101144.88;5018534;28;20091;-46
2022/04/25 09:59:21;;;;;;;18.92;12.68;;;;;;;9.92;100.00;101151.47;5017778;28;20072;-43
2022/04/25 10:02:04;;;;;;;18.33;12.40;;;;;;;9.87;100.00;101151.06;5014957;28;20663;-44
2022/04/25 10:04:34;;;;;;;16.83;12.27;;;;;;;9.90;100.00;101154.28;5011823;28;20052;-44
2022/04/25 10:07:06;;;;;;;17.58;12.80;;;;;;;9.95;100.00;101156.50;5013745;28;20026;-46
2022/04/25 10:09:34;;;;;;;17.05;11.48;;;;;;;9.92;100.00;101161.31;4996214;28;20026;-43
2022/04/25 10:12:01;;;;;;;15.70;12.10;;;;;;;9.90;100.00;101162.28;5000080;28;20106;-42
2022/04/25 10:14:27;;;;;;;18.25;11.60;;;;;;;9.88;100.00;101160.78;5016677;28;20149;-42
2022/04/25 10:16:57;;;;;;;18.02;11.70;;;;;;;9.88;100.00;101163.44;5016036;28;20029;-43
2022/04/25 10:19:23;;;;;;;16.45;12.25;;;;;;;9.83;100.00;101161.22;5015598;28;20036;-41
2022/04/25 10:21:51;;;;;;;17.58;12.65;;;;;;;9.96;100.00;101174.22;5016832;28;20075;-42
2022/04/25 10:24:19;;;;;;;18.10;12.60;;;;;;;10.12;100.00;101170.03;5014005;28;20053;-43
2022/04/25 10:26:46;;;;;;;19.70;12.95;;;;;;;10.29;100.00;101168.38;5030562;28;20571;-42
2022/04/25 10:29:16;;;;;;;19.48;13.07;;;;;;;10.35;100.00;101173.13;5016318;28;20278;-42
2022/04/25 10:31:44;;;;;;;19.33;13.40;;;;;;;10.48;100.00;101175.44;5018436;28;20514;-43
2022/04/25 10:34:12;;;;;;;18.40;12.65;;;;;;;10.50;100.00;101179.63;5006453;28;20113;-42
2022/04/25 10:36:38;;;;;;;18.25;13.38;;;;;;;10.63;100.00;101180.09;5000811;28;20060;-41
2022/04/25 10:39:44;;;;;;;17.70;12.75;;;;;;;10.72;100.00;101180.16;4999807;28;20069;-41
2022/04/25 10:44:55;;;;;;;20.60;12.63;;;;;;;10.82;100.00;101192.44;5015344;28;20123;-43
2022/04/25 10:47:23;;;;;;;19.13;12.45;;;;;;;10.87;100.00;101191.97;5019461;28;20483;-43
2022/04/25 10:50:06;;;;;;;18.63;12.73;;;;;;;10.79;100.00;101184.75;5018064;28;20105;-43
2022/04/25 10:52:37;;;;;;;21.17;12.85;;;;;;;10.69;100.00;101189.31;5019686;28;20550;-43
2022/04/25 10:55:09;;;;;;;20.20;13.13;;;;;;;10.64;100.00;101197.81;5017385;28;20052;-44
2022/04/25 10:57:34;;;;;;;22.10;12.90;;;;;;;10.58;100.00;101206.41;5009188;28;20503;-44
2022/04/25 10:59:59;;;;;;;20.50;13.25;;;;;;;10.52;100.00;101203.50;5005719;28;20018;-43
2022/04/25 11:02:27;;;;;;;20.92;13.55;;;;;;;10.40;100.00;101202.88;5018746;28;20107;-44
2022/04/25 11:05:10;;;;;;;21.73;14.55;;;;;;;10.28;100.00;101199.56;5017260;28;20033;-47
2022/04/25 11:07:40;;;;;;;23.77;14.20;;;;;;;10.18;100.00;101210.31;5008874;28;20022;-45
2022/04/25 11:10:06;;;;;;;21.08;14.25;;;;;;;10.11;100.00;101209.22;5010034;28;20498;-43
2022/04/25 11:12:57;;;;;;;21.30;14.25;;;;;;;10.06;100.00;101209.69;5000141;28;20480;-44
2022/04/25 11:15:42;;;;;;;23.50;14.85;;;;;;;10.07;100.00;101215.84;5008620;28;20060;-44
2022/04/25 11:21:04;;;;;;;21.30;14.55;;;;;;;10.09;100.00;101214.69;5039124;28;20696;-45
2022/04/25 11:23:31;;;;;;;23.88;15.60;;;;;;;10.05;100.00;101210.66;5037612;28;20546;-47
2022/04/25 11:25:57;;;;;;;22.85;15.90;;;;;;;10.07;100.00;101215.84;5013893;28;20075;-47
2022/04/25 11:28:23;;;;;;;22.58;15.55;;;;;;;10.11;100.00;101216.38;5010685;28;20029;-44
2022/04/25 11:31:13;;;;;;;25.83;15.88;;;;;;;10.20;100.00;101221.69;5007195;28;20017;-42
2022/04/25 11:33:52;;;;;;;24.13;15.65;;;;;;;10.21;100.00;101225.19;5017318;28;20179;-43
2022/04/25 11:36:19;;;;;;;23.63;15.50;;;;;;;10.25;100.00;101226.56;5015160;28;20076;-44
2022/04/25 11:41:37;;;;;;;24.80;15.98;;;;;;;10.35;100.00;101227.38;5018975;28;20087;-42
2022/04/25 11:44:04;;;;;;;24.05;15.57;;;;;;;10.37;100.00;101229.88;5013603;28;20350;-42
2022/04/25 11:46:33;;;;;;;23.63;15.73;;;;;;;10.40;100.00;101224.25;4998421;28;20512;-45